Adlington, United Kingdom
Current Conditions -  °F | °C
As of 8:20 AM on Saturday 20 Dec 2014 (Local Time) from EGNH Reporting Station
Rain Showers Rain Showers  
Wind Chill:   Ceiling: Unl
Heat Index:   Visibility: 6mi
Dew Point:   Wind: 25mph
Humidity: 76%   Direction: 280°W
Pressure: 30.15"   Gusts: NA
Location:  53.61°N, 2.61°W
Report Text: EGNH 200820Z 28022KT 9999 VCSH FEW012 SCT025 08/04 Q1021
Loading
Personal Weather Stations






























Interactive Weather Map New forecast layout! Learn more

10-Day Weather Forecast

Advertisements
Track Severe Weather on mobile